sensor_id;sensor_type;location;lat;lon;timestamp;temperature;humidity
49042;DHT22;34859;51.608;11.462;2023-10-09T00:00:02;11.90;99.90
49042;DHT22;34859;51.608;11.462;2023-10-09T00:03:04;11.90;99.90
49042;DHT22;34859;51.608;11.462;2023-10-09T00:05:45;12.00;99.90
49042;DHT22;34859;51.608;11.462;2023-10-09T00:08:30;11.90;99.90
49042;DHT22;34859;51.608;11.462;2023-10-09T00:11:11;11.90;99.90
49042;DHT22;34859;51.608;11.462;2023-10-09T00:14:02;12.00;99.90
49042;DHT22;34859;51.608;11.462;2023-10-09T00:16:46;12.00;99.90
49042;DHT22;34859;51.608;11.462;2023-10-09T00:19:40;12.00;99.90
49042;DHT22;34859;51.608;11.462;2023-10-09T00:22:27;12.00;99.90
49042;DHT22;34859;51.608;11.462;2023-10-09T00:25:13;12.00;99.90
49042;DHT22;34859;51.608;11.462;2023-10-09T00:28:07;12.10;99.90
49042;DHT22;34859;51.608;11.462;2023-10-09T00:30:54;12.00;99.90
49042;DHT22;34859;51.608;11.462;2023-10-09T00:33:38;12.00;99.90
49042;DHT22;34859;51.608;11.462;2023-10-09T00:36:22;12.00;99.90
49042;DHT22;34859;51.608;11.462;2023-10-09T00:39:12;12.00;99.90
49042;DHT22;34859;51.608;11.462;2023-10-09T00:42:04;12.00;99.90
49042;DHT22;34859;51.608;11.462;2023-10-09T00:44:50;12.00;99.90
49042;DHT22;34859;51.608;11.462;2023-10-09T00:47:34;12.00;99.90
49042;DHT22;34859;51.608;11.462;2023-10-09T00:50:19;12.00;99.90
49042;DHT22;34859;51.608;11.462;2023-10-09T00:53:05;12.00;99.90
49042;DHT22;34859;51.608;11.462;2023-10-09T00:55:54;12.00;99.90
49042;DHT22;34859;51.608;11.462;2023-10-09T00:58:40;12.10;99.90
49042;DHT22;34859;51.608;11.462;2023-10-09T01:01:27;12.10;99.90
49042;DHT22;34859;51.608;11.462;2023-10-09T01:04:40;12.10;99.90
49042;DHT22;34859;51.608;11.462;2023-10-09T01:07:27;12.10;99.90
49042;DHT22;34859;51.608;11.462;2023-10-09T01:10:12;12.10;99.90
49042;DHT22;34859;51.608;11.462;2023-10-09T01:13:16;12.10;99.90
49042;DHT22;34859;51.608;11.462;2023-10-09T01:16:05;12.10;99.90
49042;DHT22;34859;51.608;11.462;2023-10-09T01:18:54;12.10;99.90
49042;DHT22;34859;51.608;11.462;2023-10-09T01:21:41;12.10;99.90
49042;DHT22;34859;51.608;11.462;2023-10-09T01:24:22;12.10;99.90
49042;DHT22;34859;51.608;11.462;2023-10-09T01:27:07;12.10;99.90
49042;DHT22;34859;51.608;11.462;2023-10-09T01:29:58;12.10;99.90
49042;DHT22;34859;51.608;11.462;2023-10-09T01:32:43;12.10;99.90
49042;DHT22;34859;51.608;11.462;2023-10-09T01:35:30;12.10;99.90
49042;DHT22;34859;51.608;11.462;2023-10-09T01:38:17;12.00;99.90
49042;DHT22;34859;51.608;11.462;2023-10-09T01:41:01;12.10;99.90
49042;DHT22;34859;51.608;11.462;2023-10-09T01:43:51;12.10;99.90
49042;DHT22;34859;51.608;11.462;2023-10-09T01:46:40;12.10;99.90
49042;DHT22;34859;51.608;11.462;2023-10-09T01:49:25;12.10;99.90
49042;DHT22;34859;51.608;11.462;2023-10-09T01:52:16;12.10;99.90
49042;DHT22;34859;51.608;11.462;2023-10-09T01:55:00;12.20;99.90
49042;DHT22;34859;51.608;11.462;2023-10-09T01:58:05;12.20;99.90
49042;DHT22;34859;51.608;11.462;2023-10-09T02:00:50;12.20;99.90
49042;DHT22;34859;51.608;11.462;2023-10-09T02:03:39;12.20;99.90
49042;DHT22;34859;51.608;11.462;2023-10-09T02:06:25;12.20;99.90
49042;DHT22;34859;51.608;11.462;2023-10-09T02:09:11;12.20;99.90
49042;DHT22;34859;51.608;11.462;2023-10-09T02:12:04;12.20;99.90
49042;DHT22;34859;51.608;11.462;2023-10-09T02:14:49;12.20;99.90
49042;DHT22;34859;51.608;11.462;2023-10-09T02:17:31;12.20;99.90
49042;DHT22;34859;51.608;11.462;2023-10-09T02:20:18;12.20;99.90
49042;DHT22;34859;51.608;11.462;2023-10-09T02:23:13;12.20;99.90
49042;DHT22;34859;51.608;11.462;2023-10-09T02:25:58;12.20;99.90
49042;DHT22;34859;51.608;11.462;2023-10-09T02:28:45;12.20;99.90
49042;DHT22;34859;51.608;11.462;2023-10-09T02:31:42;12.20;99.90
49042;DHT22;34859;51.608;11.462;2023-10-09T02:34:35;12.20;99.90
49042;DHT22;34859;51.608;11.462;2023-10-09T02:37:22;12.20;99.90
49042;DHT22;34859;51.608;11.462;2023-10-09T02:40:09;12.20;99.90
49042;DHT22;34859;51.608;11.462;2023-10-09T02:42:56;12.20;99.90
49042;DHT22;34859;51.608;11.462;2023-10-09T02:45:37;12.20;99.90
49042;DHT22;34859;51.608;11.462;2023-10-09T02:48:34;12.30;99.90
49042;DHT22;34859;51.608;11.462;2023-10-09T02:51:21;12.30;99.90
49042;DHT22;34859;51.608;11.462;2023-10-09T02:54:11;12.30;99.90
49042;DHT22;34859;51.608;11.462;2023-10-09T02:57:05;12.30;99.90
49042;DHT22;34859;51.608;11.462;2023-10-09T02:59:52;12.30;99.90
49042;DHT22;34859;51.608;11.462;2023-10-09T03:02:36;12.30;99.90
49042;DHT22;34859;51.608;11.462;2023-10-09T03:05:20;12.30;99.90
49042;DHT22;34859;51.608;11.462;2023-10-09T03:08:05;12.40;99.90
49042;DHT22;34859;51.608;11.462;2023-10-09T03:10:49;12.40;99.90
49042;DHT22;34859;51.608;11.462;2023-10-09T03:13:33;12.40;99.90
49042;DHT22;34859;51.608;11.462;2023-10-09T03:16:17;12.40;99.90
49042;DHT22;34859;51.608;11.462;2023-10-09T03:19:04;12.50;99.90
49042;DHT22;34859;51.608;11.462;2023-10-09T03:21:48;12.50;99.90
49042;DHT22;34859;51.608;11.462;2023-10-09T03:24:32;12.50;99.90
49042;DHT22;34859;51.608;11.462;2023-10-09T03:27:16;12.50;99.90
49042;DHT22;34859;51.608;11.462;2023-10-09T03:30:01;12.50;99.90
49042;DHT22;34859;51.608;11.462;2023-10-09T03:32:50;12.60;99.90
49042;DHT22;34859;51.608;11.462;2023-10-09T03:35:35;12.60;99.90
49042;DHT22;34859;51.608;11.462;2023-10-09T03:38:20;12.60;99.90
49042;DHT22;34859;51.608;11.462;2023-10-09T03:41:05;12.60;99.90
49042;DHT22;34859;51.608;11.462;2023-10-09T03:43:47;12.60;99.90
49042;DHT22;34859;51.608;11.462;2023-10-09T03:46:31;12.60;99.90
49042;DHT22;34859;51.608;11.462;2023-10-09T03:49:20;12.60;99.90
49042;DHT22;34859;51.608;11.462;2023-10-09T03:52:07;12.60;99.90
49042;DHT22;34859;51.608;11.462;2023-10-09T03:54:53;12.50;99.90
49042;DHT22;34859;51.608;11.462;2023-10-09T03:57:38;12.60;99.90
49042;DHT22;34859;51.608;11.462;2023-10-09T04:00:24;12.50;99.90
49042;DHT22;34859;51.608;11.462;2023-10-09T04:03:15;12.40;99.90
49042;DHT22;34859;51.608;11.462;2023-10-09T04:05:59;12.30;99.90
49042;DHT22;34859;51.608;11.462;2023-10-09T04:08:44;12.30;99.90
49042;DHT22;34859;51.608;11.462;2023-10-09T04:11:32;12.20;99.90
49042;DHT22;34859;51.608;11.462;2023-10-09T04:14:17;12.20;99.90
49042;DHT22;34859;51.608;11.462;2023-10-09T04:17:17;12.10;99.90
49042;DHT22;34859;51.608;11.462;2023-10-09T04:20:07;12.10;99.90
49042;DHT22;34859;51.608;11.462;2023-10-09T04:23:04;12.10;99.90
49042;DHT22;34859;51.608;11.462;2023-10-09T04:25:51;12.00;99.90
49042;DHT22;34859;51.608;11.462;2023-10-09T04:28:35;12.10;99.90
49042;DHT22;34859;51.608;11.462;2023-10-09T04:31:20;12.10;99.90
49042;DHT22;34859;51.608;11.462;2023-10-09T04:34:06;12.10;99.90
49042;DHT22;34859;51.608;11.462;2023-10-09T04:37:09;12.00;99.90
49042;DHT22;34859;51.608;11.462;2023-10-09T04:39:59;12.10;99.90
49042;DHT22;34859;51.608;11.462;2023-10-09T04:42:56;12.20;99.90
49042;DHT22;34859;51.608;11.462;2023-10-09T04:45:43;12.20;99.90
49042;DHT22;34859;51.608;11.462;2023-10-09T04:48:27;12.30;99.90
49042;DHT22;34859;51.608;11.462;2023-10-09T04:51:21;12.30;99.90
49042;DHT22;34859;51.608;11.462;2023-10-09T04:54:04;12.40;99.90
49042;DHT22;34859;51.608;11.462;2023-10-09T04:56:57;12.50;99.90
49042;DHT22;34859;51.608;11.462;2023-10-09T04:59:41;12.60;99.90
49042;DHT22;34859;51.608;11.462;2023-10-09T05:02:28;12.70;99.90
49042;DHT22;34859;51.608;11.462;2023-10-09T05:05:21;12.80;99.90
49042;DHT22;34859;51.608;11.462;2023-10-09T05:08:21;12.80;99.90
49042;DHT22;34859;51.608;11.462;2023-10-09T05:11:03;12.80;99.90
49042;DHT22;34859;51.608;11.462;2023-10-09T05:13:59;12.80;99.90
49042;DHT22;34859;51.608;11.462;2023-10-09T05:16:55;12.80;99.90
49042;DHT22;34859;51.608;11.462;2023-10-09T05:19:45;12.90;99.90
49042;DHT22;34859;51.608;11.462;2023-10-09T05:22:38;12.90;99.90
49042;DHT22;34859;51.608;11.462;2023-10-09T05:25:24;13.00;99.90
49042;DHT22;34859;51.608;11.462;2023-10-09T05:28:37;13.10;99.90
49042;DHT22;34859;51.608;11.462;2023-10-09T05:31:36;13.10;99.90
49042;DHT22;34859;51.608;11.462;2023-10-09T05:34:44;13.20;99.90
49042;DHT22;34859;51.608;11.462;2023-10-09T05:37:44;13.40;99.90
49042;DHT22;34859;51.608;11.462;2023-10-09T05:40:29;13.40;99.90
49042;DHT22;34859;51.608;11.462;2023-10-09T05:43:20;13.40;99.90
49042;DHT22;34859;51.608;11.462;2023-10-09T05:46:23;13.50;99.90
49042;DHT22;34859;51.608;11.462;2023-10-09T05:49:16;13.50;99.90
49042;DHT22;34859;51.608;11.462;2023-10-09T05:52:08;13.50;99.90
49042;DHT22;34859;51.608;11.462;2023-10-09T05:55:12;13.50;99.90
49042;DHT22;34859;51.608;11.462;2023-10-09T05:58:09;13.50;99.90
49042;DHT22;34859;51.608;11.462;2023-10-09T06:01:14;13.50;99.90
49042;DHT22;34859;51.608;11.462;2023-10-09T06:04:18;13.50;99.90
49042;DHT22;34859;51.608;11.462;2023-10-09T06:07:03;13.50;99.90
49042;DHT22;34859;51.608;11.462;2023-10-09T06:09:56;13.50;99.90
49042;DHT22;34859;51.608;11.462;2023-10-09T06:12:41;13.50;99.90
49042;DHT22;34859;51.608;11.462;2023-10-09T06:15:28;13.50;99.90
49042;DHT22;34859;51.608;11.462;2023-10-09T06:18:27;13.50;99.90
49042;DHT22;34859;51.608;11.462;2023-10-09T06:21:21;13.50;99.90
49042;DHT22;34859;51.608;11.462;2023-10-09T06:24:41;13.50;99.90
49042;DHT22;34859;51.608;11.462;2023-10-09T06:27:35;13.60;99.90
49042;DHT22;34859;51.608;11.462;2023-10-09T06:30:19;13.60;99.90
49042;DHT22;34859;51.608;11.462;2023-10-09T06:33:03;13.60;99.90
49042;DHT22;34859;51.608;11.462;2023-10-09T06:36:13;13.60;99.90
49042;DHT22;34859;51.608;11.462;2023-10-09T06:39:02;13.60;99.90
49042;DHT22;34859;51.608;11.462;2023-10-09T06:42:04;13.60;99.90
49042;DHT22;34859;51.608;11.462;2023-10-09T06:45:17;13.60;99.90
49042;DHT22;34859;51.608;11.462;2023-10-09T06:48:01;13.50;99.90
49042;DHT22;34859;51.608;11.462;2023-10-09T06:50:56;13.60;99.90
49042;DHT22;34859;51.608;11.462;2023-10-09T06:53:39;13.60;99.90
49042;DHT22;34859;51.608;11.462;2023-10-09T06:56:39;13.50;99.90
49042;DHT22;34859;51.608;11.462;2023-10-09T06:59:23;13.60;99.90
49042;DHT22;34859;51.608;11.462;2023-10-09T07:02:08;13.60;99.90
49042;DHT22;34859;51.608;11.462;2023-10-09T07:05:11;13.60;99.90
49042;DHT22;34859;51.608;11.462;2023-10-09T07:08:01;13.60;99.90
49042;DHT22;34859;51.608;11.462;2023-10-09T07:11:06;13.60;99.90
49042;DHT22;34859;51.608;11.462;2023-10-09T07:14:25;13.60;99.90
49042;DHT22;34859;51.608;11.462;2023-10-09T07:17:15;13.70;99.90
49042;DHT22;34859;51.608;11.462;2023-10-09T07:20:00;13.70;99.90
49042;DHT22;34859;51.608;11.462;2023-10-09T07:22:57;13.80;99.90
49042;DHT22;34859;51.608;11.462;2023-10-09T07:26:04;13.80;99.90
49042;DHT22;34859;51.608;11.462;2023-10-09T07:29:04;13.80;99.90
49042;DHT22;34859;51.608;11.462;2023-10-09T07:32:02;13.90;99.90
49042;DHT22;34859;51.608;11.462;2023-10-09T07:34:56;13.90;99.90
49042;DHT22;34859;51.608;11.462;2023-10-09T07:37:44;13.90;99.90
49042;DHT22;34859;51.608;11.462;2023-10-09T07:40:38;13.90;99.90
49042;DHT22;34859;51.608;11.462;2023-10-09T07:43:41;13.90;99.90
49042;DHT22;34859;51.608;11.462;2023-10-09T07:46:29;13.90;99.90
49042;DHT22;34859;51.608;11.462;2023-10-09T07:49:36;13.90;99.90
49042;DHT22;34859;51.608;11.462;2023-10-09T07:52:18;13.90;99.90
49042;DHT22;34859;51.608;11.462;2023-10-09T07:55:05;14.00;99.90
49042;DHT22;34859;51.608;11.462;2023-10-09T07:58:06;14.00;99.90
49042;DHT22;34859;51.608;11.462;2023-10-09T08:00:56;14.00;99.90
49042;DHT22;34859;51.608;11.462;2023-10-09T08:03:51;14.10;99.90
49042;DHT22;34859;51.608;11.462;2023-10-09T08:06:42;14.20;99.90
49042;DHT22;34859;51.608;11.462;2023-10-09T08:09:26;14.20;99.90
49042;DHT22;34859;51.608;11.462;2023-10-09T08:12:30;14.20;99.90
49042;DHT22;34859;51.608;11.462;2023-10-09T08:15:41;14.20;99.90
49042;DHT22;34859;51.608;11.462;2023-10-09T08:18:37;14.20;99.90
49042;DHT22;34859;51.608;11.462;2023-10-09T08:21:25;14.20;99.90
49042;DHT22;34859;51.608;11.462;2023-10-09T08:24:48;14.30;99.90
49042;DHT22;34859;51.608;11.462;2023-10-09T08:27:41;14.40;99.90
49042;DHT22;34859;51.608;11.462;2023-10-09T08:30:40;14.40;99.90
49042;DHT22;34859;51.608;11.462;2023-10-09T08:33:34;14.40;99.90
49042;DHT22;34859;51.608;11.462;2023-10-09T08:36:19;14.40;99.90
49042;DHT22;34859;51.608;11.462;2023-10-09T08:39:08;14.40;99.90
49042;DHT22;34859;51.608;11.462;2023-10-09T08:42:07;14.50;99.90
49042;DHT22;34859;51.608;11.462;2023-10-09T08:44:53;14.50;99.90
49042;DHT22;34859;51.608;11.462;2023-10-09T08:47:37;14.60;99.90
49042;DHT22;34859;51.608;11.462;2023-10-09T08:50:25;14.60;99.90
49042;DHT22;34859;51.608;11.462;2023-10-09T08:53:13;14.60;99.90
49042;DHT22;34859;51.608;11.462;2023-10-09T08:55:54;14.60;99.90
49042;DHT22;34859;51.608;11.462;2023-10-09T08:58:39;14.60;99.90
49042;DHT22;34859;51.608;11.462;2023-10-09T09:01:25;14.70;99.90
49042;DHT22;34859;51.608;11.462;2023-10-09T09:04:09;14.70;99.90
49042;DHT22;34859;51.608;11.462;2023-10-09T09:06:55;14.80;99.90
49042;DHT22;34859;51.608;11.462;2023-10-09T09:09:57;14.80;99.90
49042;DHT22;34859;51.608;11.462;2023-10-09T09:12:46;14.80;99.90
49042;DHT22;34859;51.608;11.462;2023-10-09T09:15:30;14.80;99.90
49042;DHT22;34859;51.608;11.462;2023-10-09T09:18:15;14.80;99.90
49042;DHT22;34859;51.608;11.462;2023-10-09T09:21:17;14.90;99.90
49042;DHT22;34859;51.608;11.462;2023-10-09T09:24:10;14.90;99.90
49042;DHT22;34859;51.608;11.462;2023-10-09T09:27:02;14.90;99.90
49042;DHT22;34859;51.608;11.462;2023-10-09T09:30:05;15.00;99.90
49042;DHT22;34859;51.608;11.462;2023-10-09T09:32:52;15.00;99.90
49042;DHT22;34859;51.608;11.462;2023-10-09T09:35:59;15.10;99.90
49042;DHT22;34859;51.608;11.462;2023-10-09T09:38:46;15.10;99.90
49042;DHT22;34859;51.608;11.462;2023-10-09T09:41:34;15.20;99.90
49042;DHT22;34859;51.608;11.462;2023-10-09T09:44:19;15.20;99.90
49042;DHT22;34859;51.608;11.462;2023-10-09T09:47:05;15.20;99.90
49042;DHT22;34859;51.608;11.462;2023-10-09T09:49:51;15.30;99.90
49042;DHT22;34859;51.608;11.462;2023-10-09T09:52:37;15.30;99.90
49042;DHT22;34859;51.608;11.462;2023-10-09T09:55:26;15.30;99.90
49042;DHT22;34859;51.608;11.462;2023-10-09T09:58:20;15.30;99.90
49042;DHT22;34859;51.608;11.462;2023-10-09T10:01:09;15.30;99.90
49042;DHT22;34859;51.608;11.462;2023-10-09T10:04:15;15.40;99.90
49042;DHT22;34859;51.608;11.462;2023-10-09T10:07:06;15.50;99.90
49042;DHT22;34859;51.608;11.462;2023-10-09T10:09:50;15.50;99.90
49042;DHT22;34859;51.608;11.462;2023-10-09T10:12:50;15.50;99.90
49042;DHT22;34859;51.608;11.462;2023-10-09T10:15:58;15.60;99.90
49042;DHT22;34859;51.608;11.462;2023-10-09T10:19:02;15.60;99.90
49042;DHT22;34859;51.608;11.462;2023-10-09T10:22:23;15.60;99.90
49042;DHT22;34859;51.608;11.462;2023-10-09T10:28:23;15.70;99.90
49042;DHT22;34859;51.608;11.462;2023-10-09T10:31:19;15.70;99.90
49042;DHT22;34859;51.608;11.462;2023-10-09T10:34:06;15.70;99.90
49042;DHT22;34859;51.608;11.462;2023-10-09T10:36:54;15.70;99.90
49042;DHT22;34859;51.608;11.462;2023-10-09T10:39:51;15.80;99.90
49042;DHT22;34859;51.608;11.462;2023-10-09T10:42:35;15.80;99.90
49042;DHT22;34859;51.608;11.462;2023-10-09T10:45:20;15.80;99.90
49042;DHT22;34859;51.608;11.462;2023-10-09T10:48:19;15.80;99.90
49042;DHT22;34859;51.608;11.462;2023-10-09T10:51:13;15.80;99.90
49042;DHT22;34859;51.608;11.462;2023-10-09T10:53:55;15.80;99.90
49042;DHT22;34859;51.608;11.462;2023-10-09T10:56:41;15.80;99.90
49042;DHT22;34859;51.608;11.462;2023-10-09T10:59:39;15.80;99.90
49042;DHT22;34859;51.608;11.462;2023-10-09T11:02:23;15.80;99.90
49042;DHT22;34859;51.608;11.462;2023-10-09T11:05:12;15.80;99.90
49042;DHT22;34859;51.608;11.462;2023-10-09T11:08:10;15.70;99.90
49042;DHT22;34859;51.608;11.462;2023-10-09T11:11:10;15.70;99.90
49042;DHT22;34859;51.608;11.462;2023-10-09T11:14:08;15.70;99.90
49042;DHT22;34859;51.608;11.462;2023-10-09T11:16:52;15.70;99.90
49042;DHT22;34859;51.608;11.462;2023-10-09T11:19:41;15.70;99.90
49042;DHT22;34859;51.608;11.462;2023-10-09T11:22:27;15.70;99.90
49042;DHT22;34859;51.608;11.462;2023-10-09T11:25:20;15.60;99.90
49042;DHT22;34859;51.608;11.462;2023-10-09T11:28:01;15.60;99.90
49042;DHT22;34859;51.608;11.462;2023-10-09T11:31:12;15.50;99.90
49042;DHT22;34859;51.608;11.462;2023-10-09T11:33:55;15.50;99.90
49042;DHT22;34859;51.608;11.462;2023-10-09T11:36:39;15.50;99.90
49042;DHT22;34859;51.608;11.462;2023-10-09T11:39:34;15.50;99.90
49042;DHT22;34859;51.608;11.462;2023-10-09T11:42:19;15.40;99.90
49042;DHT22;34859;51.608;11.462;2023-10-09T11:45:24;15.40;99.90
49042;DHT22;34859;51.608;11.462;2023-10-09T11:48:18;15.50;99.90
49042;DHT22;34859;51.608;11.462;2023-10-09T11:51:30;15.50;99.90
49042;DHT22;34859;51.608;11.462;2023-10-09T11:54:32;15.50;99.90
49042;DHT22;34859;51.608;11.462;2023-10-09T11:57:17;15.50;99.90
49042;DHT22;34859;51.608;11.462;2023-10-09T12:00:03;15.50;99.90
49042;DHT22;34859;51.608;11.462;2023-10-09T12:03:06;15.60;99.90
49042;DHT22;34859;51.608;11.462;2023-10-09T12:05:50;15.60;99.90
49042;DHT22;34859;51.608;11.462;2023-10-09T12:08:37;15.70;99.90
49042;DHT22;34859;51.608;11.462;2023-10-09T12:11:24;15.70;99.90
49042;DHT22;34859;51.608;11.462;2023-10-09T12:14:15;15.70;99.90
49042;DHT22;34859;51.608;11.462;2023-10-09T12:16:56;15.70;99.90
49042;DHT22;34859;51.608;11.462;2023-10-09T12:19:41;15.80;99.90
49042;DHT22;34859;51.608;11.462;2023-10-09T12:22:25;15.80;99.90
49042;DHT22;34859;51.608;11.462;2023-10-09T12:25:11;15.80;99.90
49042;DHT22;34859;51.608;11.462;2023-10-09T12:27:52;15.80;99.90
49042;DHT22;34859;51.608;11.462;2023-10-09T12:30:41;15.80;99.90
49042;DHT22;34859;51.608;11.462;2023-10-09T12:33:25;15.80;99.90
49042;DHT22;34859;51.608;11.462;2023-10-09T12:36:13;15.90;99.90
49042;DHT22;34859;51.608;11.462;2023-10-09T12:39:06;15.90;99.90
49042;DHT22;34859;51.608;11.462;2023-10-09T12:41:51;15.90;99.90
49042;DHT22;34859;51.608;11.462;2023-10-09T12:44:38;15.90;99.90
49042;DHT22;34859;51.608;11.462;2023-10-09T12:47:25;15.90;99.90
49042;DHT22;34859;51.608;11.462;2023-10-09T12:50:10;15.80;99.90
49042;DHT22;34859;51.608;11.462;2023-10-09T12:52:58;15.80;99.90
49042;DHT22;34859;51.608;11.462;2023-10-09T12:55:45;15.80;99.90
49042;DHT22;34859;51.608;11.462;2023-10-09T12:58:30;15.80;99.90
49042;DHT22;34859;51.608;11.462;2023-10-09T13:01:14;15.80;99.90
49042;DHT22;34859;51.608;11.462;2023-10-09T13:03:59;15.80;99.90
49042;DHT22;34859;51.608;11.462;2023-10-09T13:06:46;15.80;99.90
49042;DHT22;34859;51.608;11.462;2023-10-09T13:09:30;15.80;99.90
49042;DHT22;34859;51.608;11.462;2023-10-09T13:12:27;15.80;99.90
49042;DHT22;34859;51.608;11.462;2023-10-09T13:15:13;15.80;99.90
49042;DHT22;34859;51.608;11.462;2023-10-09T13:17:58;15.80;99.90
49042;DHT22;34859;51.608;11.462;2023-10-09T13:20:42;15.70;99.90
49042;DHT22;34859;51.608;11.462;2023-10-09T13:23:26;15.70;99.90
49042;DHT22;34859;51.608;11.462;2023-10-09T13:26:22;15.70;99.90
49042;DHT22;34859;51.608;11.462;2023-10-09T13:29:14;15.70;99.90
49042;DHT22;34859;51.608;11.462;2023-10-09T13:32:07;15.70;99.90
49042;DHT22;34859;51.608;11.462;2023-10-09T13:34:58;15.70;99.90
49042;DHT22;34859;51.608;11.462;2023-10-09T13:37:46;15.70;99.90
49042;DHT22;34859;51.608;11.462;2023-10-09T13:40:36;15.70;99.90
49042;DHT22;34859;51.608;11.462;2023-10-09T13:43:18;15.70;99.90
49042;DHT22;34859;51.608;11.462;2023-10-09T13:46:02;15.70;99.90
49042;DHT22;34859;51.608;11.462;2023-10-09T13:48:48;15.70;99.90
49042;DHT22;34859;51.608;11.462;2023-10-09T13:51:33;15.70;99.90
49042;DHT22;34859;51.608;11.462;2023-10-09T13:54:17;15.70;99.90
49042;DHT22;34859;51.608;11.462;2023-10-09T13:57:16;15.70;99.90
49042;DHT22;34859;51.608;11.462;2023-10-09T13:59:58;15.70;99.90
49042;DHT22;34859;51.608;11.462;2023-10-09T14:02:44;15.70;99.90
49042;DHT22;34859;51.608;11.462;2023-10-09T14:05:30;15.70;99.90
49042;DHT22;34859;51.608;11.462;2023-10-09T14:08:15;15.70;99.90
49042;DHT22;34859;51.608;11.462;2023-10-09T14:11:00;15.70;99.90
49042;DHT22;34859;51.608;11.462;2023-10-09T14:13:41;15.70;99.90
49042;DHT22;34859;51.608;11.462;2023-10-09T14:16:25;15.70;99.90
49042;DHT22;34859;51.608;11.462;2023-10-09T14:19:11;15.70;99.90
49042;DHT22;34859;51.608;11.462;2023-10-09T14:21:57;15.70;99.90
49042;DHT22;34859;51.608;11.462;2023-10-09T14:24:42;15.70;99.90
49042;DHT22;34859;51.608;11.462;2023-10-09T14:27:29;15.70;99.90
49042;DHT22;34859;51.608;11.462;2023-10-09T14:30:14;15.80;99.90
49042;DHT22;34859;51.608;11.462;2023-10-09T14:33:07;15.80;99.90
49042;DHT22;34859;51.608;11.462;2023-10-09T14:35:56;15.80;99.90
49042;DHT22;34859;51.608;11.462;2023-10-09T14:38:42;15.80;99.90
49042;DHT22;34859;51.608;11.462;2023-10-09T14:41:26;15.80;99.90
49042;DHT22;34859;51.608;11.462;2023-10-09T14:44:11;15.80;99.90
49042;DHT22;34859;51.608;11.462;2023-10-09T14:47:00;15.80;99.90
49042;DHT22;34859;51.608;11.462;2023-10-09T14:49:47;15.80;99.90
49042;DHT22;34859;51.608;11.462;2023-10-09T14:52:32;15.80;99.90
49042;DHT22;34859;51.608;11.462;2023-10-09T14:55:16;15.80;99.90
49042;DHT22;34859;51.608;11.462;2023-10-09T14:58:15;15.80;99.90
49042;DHT22;34859;51.608;11.462;2023-10-09T15:01:07;15.80;99.90
49042;DHT22;34859;51.608;11.462;2023-10-09T15:03:53;15.80;99.90
49042;DHT22;34859;51.608;11.462;2023-10-09T15:06:41;15.80;99.90
49042;DHT22;34859;51.608;11.462;2023-10-09T15:09:25;15.80;99.90
49042;DHT22;34859;51.608;11.462;2023-10-09T15:12:15;15.70;99.90
49042;DHT22;34859;51.608;11.462;2023-10-09T15:14:59;15.70;99.90
49042;DHT22;34859;51.608;11.462;2023-10-09T15:17:41;15.70;99.90
49042;DHT22;34859;51.608;11.462;2023-10-09T15:20:28;15.70;99.90
49042;DHT22;34859;51.608;11.462;2023-10-09T15:23:12;15.70;99.90
49042;DHT22;34859;51.608;11.462;2023-10-09T15:25:56;15.70;99.90
49042;DHT22;34859;51.608;11.462;2023-10-09T15:28:37;15.70;99.90
49042;DHT22;34859;51.608;11.462;2023-10-09T15:31:24;15.60;99.90
49042;DHT22;34859;51.608;11.462;2023-10-09T15:34:07;15.70;99.90
49042;DHT22;34859;51.608;11.462;2023-10-09T15:36:52;15.60;99.90
49042;DHT22;34859;51.608;11.462;2023-10-09T15:39:37;15.60;99.90
49042;DHT22;34859;51.608;11.462;2023-10-09T15:42:21;15.60;99.90
49042;DHT22;34859;51.608;11.462;2023-10-09T15:45:06;15.70;99.90
49042;DHT22;34859;51.608;11.462;2023-10-09T15:47:53;15.70;99.90
49042;DHT22;34859;51.608;11.462;2023-10-09T15:50:38;15.60;99.90
49042;DHT22;34859;51.608;11.462;2023-10-09T15:53:28;15.60;99.90
49042;DHT22;34859;51.608;11.462;2023-10-09T15:56:13;15.60;99.90
49042;DHT22;34859;51.608;11.462;2023-10-09T15:58:57;15.60;99.90
49042;DHT22;34859;51.608;11.462;2023-10-09T16:01:42;15.70;99.90
49042;DHT22;34859;51.608;11.462;2023-10-09T16:04:27;15.60;99.90
49042;DHT22;34859;51.608;11.462;2023-10-09T16:07:11;15.60;99.90
49042;DHT22;34859;51.608;11.462;2023-10-09T16:09:56;15.60;99.90
49042;DHT22;34859;51.608;11.462;2023-10-09T16:12:42;15.60;99.90
49042;DHT22;34859;51.608;11.462;2023-10-09T16:15:27;15.60;99.90
49042;DHT22;34859;51.608;11.462;2023-10-09T16:18:09;15.60;99.90
49042;DHT22;34859;51.608;11.462;2023-10-09T16:20:55;15.60;99.90
49042;DHT22;34859;51.608;11.462;2023-10-09T16:23:40;15.60;99.90
49042;DHT22;34859;51.608;11.462;2023-10-09T16:26:23;15.60;99.90
49042;DHT22;34859;51.608;11.462;2023-10-09T16:29:09;15.60;99.90
49042;DHT22;34859;51.608;11.462;2023-10-09T16:31:54;15.60;99.90
49042;DHT22;34859;51.608;11.462;2023-10-09T16:34:39;15.60;99.90
49042;DHT22;34859;51.608;11.462;2023-10-09T16:37:24;15.60;99.90
49042;DHT22;34859;51.608;11.462;2023-10-09T16:40:09;15.60;99.90
49042;DHT22;34859;51.608;11.462;2023-10-09T16:42:57;15.60;99.90
49042;DHT22;34859;51.608;11.462;2023-10-09T16:45:41;15.60;99.90
49042;DHT22;34859;51.608;11.462;2023-10-09T16:48:27;15.60;99.90
49042;DHT22;34859;51.608;11.462;2023-10-09T16:51:11;15.60;99.90
49042;DHT22;34859;51.608;11.462;2023-10-09T16:53:56;15.60;99.90
49042;DHT22;34859;51.608;11.462;2023-10-09T16:56:43;15.60;99.90
49042;DHT22;34859;51.608;11.462;2023-10-09T16:59:27;15.60;99.90
49042;DHT22;34859;51.608;11.462;2023-10-09T17:02:17;15.50;99.90
49042;DHT22;34859;51.608;11.462;2023-10-09T17:05:08;15.50;99.90
49042;DHT22;34859;51.608;11.462;2023-10-09T17:07:56;15.50;99.90
49042;DHT22;34859;51.608;11.462;2023-10-09T17:10:42;15.50;99.90
49042;DHT22;34859;51.608;11.462;2023-10-09T17:13:29;15.50;99.90
49042;DHT22;34859;51.608;11.462;2023-10-09T17:16:15;15.50;99.90
49042;DHT22;34859;51.608;11.462;2023-10-09T17:19:01;15.50;99.90
49042;DHT22;34859;51.608;11.462;2023-10-09T17:21:46;15.50;99.90
49042;DHT22;34859;51.608;11.462;2023-10-09T17:24:30;15.40;99.90
49042;DHT22;34859;51.608;11.462;2023-10-09T17:27:16;15.50;99.90
49042;DHT22;34859;51.608;11.462;2023-10-09T17:30:03;15.50;99.90
49042;DHT22;34859;51.608;11.462;2023-10-09T17:32:46;15.40;99.90
49042;DHT22;34859;51.608;11.462;2023-10-09T17:35:30;15.40;99.90